createdAt,value
2018-04-12T00:00:50.908Z,93041.84
2018-04-12T00:03:17.471Z,93038.80
2018-04-12T00:05:43.875Z,93037.81
2018-04-12T00:08:10.297Z,93036.92
2018-04-12T00:10:36.730Z,93040.30
2018-04-12T00:13:03.090Z,93036.30
2018-04-12T00:15:29.524Z,93033.48
2018-04-12T00:17:55.942Z,93038.02
2018-04-12T00:20:22.350Z,93033.80
2018-04-12T00:22:48.762Z,93039.59
2018-04-12T00:25:15.174Z,93035.92
2018-04-12T00:27:41.579Z,93036.20
2018-04-12T00:30:07.948Z,93045.00
2018-04-12T00:32:34.475Z,93044.52
2018-04-12T00:35:00.811Z,93034.91
2018-04-12T00:37:27.149Z,93036.92
2018-04-12T00:39:53.544Z,93044.41
2018-04-12T00:42:19.980Z,93037.80
2018-04-12T00:44:46.363Z,93036.52
2018-04-12T00:47:12.792Z,93040.77
2018-04-12T00:49:39.179Z,93042.88
2018-04-12T00:52:06.661Z,93046.72
2018-04-12T00:54:33.096Z,93038.34
2018-04-12T00:56:59.445Z,93041.45
2018-04-12T00:59:25.850Z,93040.29
2018-04-12T01:01:52.275Z,93041.98
2018-04-12T01:04:18.589Z,93041.19
2018-04-12T01:06:44.973Z,93040.31
2018-04-12T01:09:11.363Z,93036.38
2018-04-12T01:11:37.738Z,93047.78
2018-04-12T01:14:04.219Z,93038.38
2018-04-12T01:16:30.630Z,93042.36
2018-04-12T01:18:57.010Z,93041.64
2018-04-12T01:21:23.410Z,93046.59
2018-04-12T01:23:49.809Z,93044.80
2018-04-12T01:26:16.226Z,93042.65
2018-04-12T01:28:42.576Z,93040.25
2018-04-12T01:31:09.025Z,93043.03
2018-04-12T01:33:35.426Z,93045.61
2018-04-12T01:36:01.782Z,93050.47
2018-04-12T01:38:28.147Z,93053.79
2018-04-12T01:40:54.522Z,93050.23
2018-04-12T01:43:20.921Z,93044.14
2018-04-12T01:45:47.296Z,93044.53
2018-04-12T01:48:13.648Z,93053.77
2018-04-12T01:50:40.133Z,93057.80
2018-04-12T01:53:08.530Z,93057.09
2018-04-12T01:55:34.923Z,93056.44
2018-04-12T01:58:01.405Z,93053.53
2018-04-12T02:00:27.894Z,93050.17
2018-04-12T02:02:54.336Z,93057.44
2018-04-12T02:05:20.745Z,93049.32
2018-04-12T02:07:47.234Z,93044.27
2018-04-12T02:10:13.730Z,93044.12
2018-04-12T02:12:46.112Z,93044.27
2018-04-12T02:15:12.555Z,93045.44
2018-04-12T02:17:38.908Z,93048.09
2018-04-12T02:20:05.332Z,93051.08
2018-04-12T02:22:31.821Z,93053.23
2018-04-12T02:24:58.165Z,93060.98
2018-04-12T02:27:24.551Z,93063.33
2018-04-12T02:29:50.965Z,93060.83
2018-04-12T02:32:18.508Z,93059.14
2018-04-12T02:34:44.865Z,93059.55
2018-04-12T02:37:11.240Z,93062.07
2018-04-12T02:39:37.545Z,93058.43
2018-04-12T02:42:04.921Z,93052.89
2018-04-12T02:44:31.316Z,93049.80
2018-04-12T02:46:57.677Z,93053.42
2018-04-12T02:49:23.994Z,93056.72
2018-04-12T02:51:50.420Z,93055.01
2018-04-12T02:54:16.804Z,93056.26
2018-04-12T02:56:43.151Z,93056.47
2018-04-12T02:59:09.510Z,93057.39
2018-04-12T03:01:35.917Z,93063.02
2018-04-12T03:04:02.431Z,93063.18
2018-04-12T03:06:28.871Z,93069.53
2018-04-12T03:08:55.306Z,93068.47
2018-04-12T03:11:21.691Z,93072.70
2018-04-12T03:13:48.114Z,93076.00
2018-04-12T03:16:14.520Z,93076.22
2018-04-12T03:18:40.872Z,93083.02
2018-04-12T03:21:07.673Z,93079.36
2018-04-12T03:23:34.214Z,93078.38
2018-04-12T03:26:00.601Z,93075.48
2018-04-12T03:28:26.946Z,93081.09
2018-04-12T03:30:53.318Z,93086.13
2018-04-12T03:33:21.693Z,93079.97
2018-04-12T03:35:48.162Z,93087.43
2018-04-12T03:38:14.555Z,93079.27
2018-04-12T03:40:40.955Z,93083.36
2018-04-12T03:43:07.581Z,93078.41
2018-04-12T03:45:33.958Z,93078.19
2018-04-12T03:48:00.444Z,93083.44
2018-04-12T03:50:26.917Z,93083.73
2018-04-12T03:52:53.364Z,93086.49
2018-04-12T03:55:19.680Z,93093.95
2018-04-12T03:57:46.040Z,93088.70
2018-04-12T04:00:12.741Z,93093.10
2018-04-12T04:02:39.170Z,93086.66
2018-04-12T04:05:05.592Z,93094.42
2018-04-12T04:07:31.992Z,93091.05
2018-04-12T04:09:58.351Z,93091.67
2018-04-12T04:12:28.384Z,93096.04
2018-04-12T04:18:07.578Z,93100.33
2018-04-12T04:20:46.369Z,93102.06
2018-04-12T04:23:12.789Z,93100.73
2018-04-12T04:25:39.221Z,93103.31
2018-04-12T04:28:05.586Z,93108.80
2018-04-12T04:30:31.994Z,93103.50
2018-04-12T04:32:58.379Z,93102.75
2018-04-12T04:35:24.727Z,93105.33
2018-04-12T04:37:51.101Z,93110.03
2018-04-12T04:40:17.502Z,93103.22
2018-04-12T04:42:45.086Z,93106.27
2018-04-12T04:45:11.563Z,93115.69
2018-04-12T04:47:38.012Z,93119.37
2018-04-12T04:50:04.511Z,93117.33
2018-04-12T04:52:31.055Z,93121.27
2018-04-12T04:54:57.491Z,93127.94
2018-04-12T04:57:23.940Z,93123.98
2018-04-12T04:59:50.363Z,93115.91
2018-04-12T05:02:16.809Z,93126.69
2018-04-12T05:04:43.242Z,93123.67
2018-04-12T05:07:09.679Z,93121.05
2018-04-12T05:09:36.032Z,93124.58
2018-04-12T05:12:02.423Z,93130.12
2018-04-12T05:14:28.977Z,93124.48
2018-04-12T05:16:55.411Z,93129.15
2018-04-12T05:19:21.815Z,93131.16
2018-04-12T05:21:48.251Z,93128.36
2018-04-12T05:24:14.786Z,93126.50
2018-04-12T05:26:41.236Z,93138.52
2018-04-12T05:29:07.659Z,93137.00
2018-04-12T05:31:34.091Z,93129.56
2018-04-12T05:34:00.615Z,93127.23
2018-04-12T05:36:27.066Z,93131.22
2018-04-12T05:38:53.507Z,93136.31
2018-04-12T05:41:19.917Z,93132.45
2018-04-12T05:43:46.530Z,93133.87
2018-04-12T05:46:12.978Z,93134.05
2018-04-12T05:48:39.383Z,93138.81
2018-04-12T05:51:05.947Z,93138.34
2018-04-12T05:53:32.471Z,93146.20
2018-04-12T05:55:59.012Z,93141.50
2018-04-12T05:58:25.474Z,93144.73
2018-04-12T06:00:51.858Z,93148.72
2018-04-12T06:03:18.312Z,93148.08
2018-04-12T06:05:44.800Z,93147.64
2018-04-12T06:08:11.145Z,93142.89
2018-04-12T06:10:37.477Z,93153.05
2018-04-12T06:13:04.133Z,93147.91
2018-04-12T06:15:30.602Z,93157.77
2018-04-12T06:17:57.038Z,93157.96
2018-04-12T06:20:23.476Z,93159.14
2018-04-12T06:22:49.826Z,93154.17
2018-04-12T06:25:16.297Z,93153.72
2018-04-12T06:27:42.690Z,93158.73
2018-04-12T06:30:09.082Z,93158.05
2018-04-12T06:32:35.554Z,93162.34
2018-04-12T06:35:03.167Z,93154.17
2018-04-12T06:37:30.910Z,93156.62
2018-04-12T06:39:59.027Z,93167.06
2018-04-12T06:42:26.489Z,93161.94
2018-04-12T06:44:54.008Z,93161.55
2018-04-12T06:47:22.010Z,93157.40
2018-04-12T06:49:49.071Z,93161.39
2018-04-12T06:52:15.624Z,93157.50
2018-04-12T06:54:42.159Z,93159.70
2018-04-12T06:57:08.597Z,93163.77
2018-04-12T06:59:35.031Z,93169.30
2018-04-12T07:02:01.413Z,93166.59
2018-04-12T07:04:28.039Z,93164.31
2018-04-12T07:06:55.464Z,93166.61
2018-04-12T07:09:21.959Z,93177.75
2018-04-12T07:11:48.390Z,93174.25
2018-04-12T07:14:14.875Z,93178.73
2018-04-12T07:16:41.382Z,93180.21
2018-04-12T07:19:07.813Z,93172.95
2018-04-12T07:21:34.170Z,93167.16
2018-04-12T07:24:00.827Z,93168.47
2018-04-12T07:26:27.390Z,93169.95
2018-04-12T07:28:53.946Z,93166.95
2018-04-12T07:31:20.353Z,93166.55
2018-04-12T07:33:46.825Z,93168.12
2018-04-12T07:36:13.253Z,93166.02
2018-04-12T07:38:39.684Z,93168.25
2018-04-12T07:41:06.611Z,93165.88
2018-04-12T07:43:33.396Z,93171.69
2018-04-12T07:46:00.537Z,93174.44
2018-04-12T07:48:27.152Z,93171.55
2018-04-12T07:50:53.512Z,93169.92
2018-04-12T07:53:19.961Z,93172.20
2018-04-12T07:55:46.388Z,93167.05
2018-04-12T07:58:12.944Z,93169.23
2018-04-12T08:00:39.466Z,93171.92
2018-04-12T08:03:06.971Z,93170.55
2018-04-12T08:05:33.355Z,93174.25
2018-04-12T08:07:59.710Z,93169.63
2018-04-12T08:10:26.185Z,93168.22
2018-04-12T08:12:52.581Z,93163.94
2018-04-12T08:15:18.975Z,93166.95
2018-04-12T08:17:45.409Z,93170.86
2018-04-12T08:20:11.948Z,93176.81
2018-04-12T08:22:38.467Z,93164.95
2018-04-12T08:25:04.877Z,93160.14
2018-04-12T08:27:31.289Z,93166.53
2018-04-12T08:29:57.720Z,93160.78
2018-04-12T08:32:24.154Z,93165.00
2018-04-12T08:34:50.609Z,93158.13
2018-04-12T08:37:17.059Z,93154.95
2018-04-12T08:39:43.529Z,93156.73
2018-04-12T08:42:09.891Z,93155.35
2018-04-12T08:44:36.320Z,93160.96
2018-04-12T08:47:02.711Z,93161.48
2018-04-12T08:49:29.088Z,93154.04
2018-04-12T08:51:55.481Z,93156.75
2018-04-12T08:54:22.036Z,93156.52
2018-04-12T08:56:48.448Z,93159.64
2018-04-12T08:59:14.805Z,93150.25
2018-04-12T09:01:41.326Z,93153.14
2018-04-12T09:04:07.818Z,93147.69
2018-04-12T09:06:34.218Z,93144.98
2018-04-12T09:09:00.645Z,93137.45
2018-04-12T09:11:27.199Z,93133.24
2018-04-12T09:13:53.735Z,93132.09
2018-04-12T09:16:20.156Z,93129.73
2018-04-12T09:18:46.535Z,93129.73
2018-04-12T09:21:13.052Z,93122.91
2018-04-12T09:23:39.585Z,93117.98
2018-04-12T09:26:06.015Z,93117.83
2018-04-12T09:28:32.445Z,93120.69
2018-04-12T09:30:58.844Z,93114.52
2018-04-12T09:33:25.350Z,93114.02
2018-04-12T09:35:51.921Z,93117.48
2018-04-12T09:38:18.476Z,93108.48
2018-04-12T09:40:44.849Z,93108.75
2018-04-12T09:43:11.404Z,93104.03
2018-04-12T09:45:37.829Z,93098.09
2018-04-12T09:48:04.306Z,93088.97
2018-04-12T09:50:30.761Z,93095.18
2018-04-12T09:52:57.152Z,93094.55
2018-04-12T09:55:23.525Z,93101.05
2018-04-12T09:57:50.043Z,93093.11
2018-04-12T10:00:22.383Z,93091.67
2018-04-12T10:02:54.885Z,93086.59
2018-04-12T10:05:27.273Z,93083.95
2018-04-12T10:07:53.766Z,93079.69
2018-04-12T10:10:20.196Z,93071.75
2018-04-12T10:12:46.683Z,93073.20
2018-04-12T10:15:13.232Z,93069.73
2018-04-12T10:17:39.719Z,93069.75
2018-04-12T10:20:06.249Z,93070.25
2018-04-12T10:22:32.777Z,93064.84
2018-04-12T10:25:00.327Z,93059.92
2018-04-12T10:27:26.772Z,93056.52
2018-04-12T10:29:53.410Z,93048.36
2018-04-12T10:32:20.027Z,93053.73
2018-04-12T10:34:46.562Z,93045.47
2018-04-12T10:37:13.039Z,93047.97
2018-04-12T10:39:39.573Z,93046.75
2018-04-12T10:42:06.070Z,93041.02
2018-04-12T10:44:32.571Z,93049.66
2018-04-12T10:46:58.959Z,93046.75
2018-04-12T10:49:25.365Z,93047.03
2018-04-12T10:51:51.796Z,93038.25
2018-04-12T10:54:18.247Z,93041.19
2018-04-12T10:56:44.672Z,93034.94
2018-04-12T10:59:11.188Z,93029.52
2018-04-12T11:01:37.685Z,93035.18
2018-04-12T11:04:04.208Z,93029.16
2018-04-12T11:06:30.711Z,93030.36
2018-04-12T11:08:57.213Z,93019.78
2018-04-12T11:11:23.598Z,93026.81
2018-04-12T11:13:50.100Z,93017.89
2018-04-12T11:16:16.784Z,93016.98
2018-04-12T11:18:43.373Z,93012.60
2018-04-12T11:21:09.907Z,93008.91
2018-04-12T11:23:36.355Z,93008.39
2018-04-12T11:26:02.901Z,93010.22
2018-04-12T11:28:29.373Z,93004.48
2018-04-12T11:30:55.838Z,92997.41
2018-04-12T11:33:22.305Z,93005.73
2018-04-12T11:35:48.839Z,93006.03
2018-04-12T11:38:15.669Z,93008.52
2018-04-12T11:40:42.170Z,92994.23
2018-04-12T11:43:08.845Z,92998.02
2018-04-12T11:45:35.280Z,92990.02
2018-04-12T11:48:01.692Z,92989.93
2018-04-12T11:50:28.128Z,92985.62
2018-04-12T11:52:54.637Z,92986.36
2018-04-12T11:55:21.067Z,92989.44
2018-04-12T11:57:47.521Z,92984.87
2018-04-12T12:00:13.932Z,92991.41
2018-04-12T12:02:40.326Z,92986.02
2018-04-12T12:05:06.885Z,92981.97
2018-04-12T12:07:33.242Z,92977.83
2018-04-12T12:09:59.613Z,92980.84
2018-04-12T12:12:26.207Z,92969.14
2018-04-12T12:14:52.629Z,92970.69
2018-04-12T12:17:19.058Z,92963.40
2018-04-12T12:19:45.541Z,92965.34
2018-04-12T12:22:11.951Z,92962.23
2018-04-12T12:24:38.423Z,92961.55
2018-04-12T12:27:04.840Z,92962.69
2018-04-12T12:29:31.202Z,92966.66
2018-04-12T12:31:57.628Z,92961.22
2018-04-12T12:34:24.170Z,92957.82
2018-04-12T12:36:50.642Z,92959.00
2018-04-12T12:39:17.040Z,92951.89
2018-04-12T12:41:43.439Z,92951.56
2018-04-12T12:44:09.897Z,92949.42
2018-04-12T12:46:36.302Z,92949.70
2018-04-12T12:49:02.739Z,92943.77
2018-04-12T12:51:29.208Z,92941.38
2018-04-12T12:53:55.669Z,92943.55
2018-04-12T12:56:22.076Z,92941.60
2018-04-12T12:58:48.687Z,92945.94
2018-04-12T13:01:15.064Z,92941.59
2018-04-12T13:03:41.542Z,92942.55
2018-04-12T13:06:07.972Z,92934.83
2018-04-12T13:08:34.421Z,92938.03
2018-04-12T13:11:00.868Z,92936.04
2018-04-12T13:13:27.367Z,92926.04
2018-04-12T13:15:53.812Z,92929.46
2018-04-12T13:18:20.383Z,92929.30
2018-04-12T13:20:46.743Z,92925.78
2018-04-12T13:23:13.665Z,92927.33
2018-04-12T13:25:40.131Z,92927.05
2018-04-12T13:28:06.570Z,92925.78
2018-04-12T13:30:32.906Z,92915.77
2018-04-12T13:32:59.379Z,92918.91
2018-04-12T13:35:25.837Z,92920.30
2018-04-12T13:37:52.229Z,92911.13
2018-04-12T13:40:18.692Z,92906.23
2018-04-12T13:42:45.155Z,92911.61
2018-04-12T13:45:11.721Z,92908.42
2018-04-12T13:47:38.144Z,92905.19
2018-04-12T13:50:04.541Z,92909.11
2018-04-12T13:52:30.978Z,92901.23
2018-04-12T13:54:57.439Z,92901.53
2018-04-12T13:57:23.796Z,92901.07
2018-04-12T13:59:50.210Z,92902.84
2018-04-12T14:02:16.966Z,92895.28
2018-04-12T14:04:43.490Z,92902.55
2018-04-12T14:07:09.805Z,92897.63
2018-04-12T14:09:36.206Z,92898.66
2018-04-12T14:12:02.684Z,92897.02
2018-04-12T14:14:29.192Z,92889.86
2018-04-12T14:16:55.532Z,92891.48
2018-04-12T14:19:21.929Z,92885.25
2018-04-12T14:21:48.265Z,92882.37
2018-04-12T14:24:14.702Z,92887.20
2018-04-12T14:26:41.061Z,92888.01
2018-04-12T14:29:07.517Z,92886.30
2018-04-12T14:31:34.025Z,92886.62
2018-04-12T14:34:00.575Z,92886.23
2018-04-12T14:36:27.082Z,92874.83
2018-04-12T14:38:53.494Z,92874.34
2018-04-12T14:41:20.047Z,92880.75
2018-04-12T14:43:46.429Z,92880.35
2018-04-12T14:46:12.829Z,92876.25
2018-04-12T14:48:39.293Z,92877.69
2018-04-12T14:51:05.769Z,92879.72
2018-04-12T14:53:32.250Z,92879.58
2018-04-12T14:55:58.843Z,92871.78
2018-04-12T14:58:25.207Z,92871.25
2018-04-12T15:00:51.605Z,92873.20
2018-04-12T15:03:18.072Z,92875.64
2018-04-12T15:05:44.497Z,92875.52
2018-04-12T15:08:11.051Z,92878.50
2018-04-12T15:10:37.591Z,92870.70
2018-04-12T15:13:04.098Z,92879.27
2018-04-12T15:15:30.510Z,92878.16
2018-04-12T15:17:57.034Z,92876.38
2018-04-12T15:20:23.639Z,92880.36
2018-04-12T15:22:50.111Z,92890.22
2018-04-12T15:25:16.617Z,92882.25
2018-04-12T15:27:43.529Z,92882.66
2018-04-12T15:30:10.067Z,92890.56
2018-04-12T15:32:36.475Z,92886.69
2018-04-12T15:35:02.905Z,92893.35
2018-04-12T15:37:29.267Z,92890.35
2018-04-12T15:39:55.705Z,92886.44
2018-04-12T15:42:22.481Z,92890.34
2018-04-12T15:44:49.092Z,92883.25
2018-04-12T15:47:15.639Z,92887.17
2018-04-12T15:49:42.071Z,92879.00
2018-04-12T15:52:08.479Z,92881.19
2018-04-12T15:54:35.069Z,92873.70
2018-04-12T15:57:01.538Z,92879.69
2018-04-12T15:59:27.953Z,92881.87
2018-04-12T16:01:54.932Z,92881.40
2018-04-12T16:04:21.508Z,92880.77
2018-04-12T16:06:48.124Z,92880.88
2018-04-12T16:09:14.710Z,92882.95
2018-04-12T16:11:41.169Z,92884.33
2018-04-12T16:14:07.610Z,92886.89
2018-04-12T16:16:34.047Z,92884.91
2018-04-12T16:19:00.447Z,92882.94
2018-04-12T16:21:26.905Z,92893.27
2018-04-12T16:23:53.377Z,92891.80
2018-04-12T16:26:19.849Z,92893.35
2018-04-12T16:28:46.251Z,92899.24
2018-04-12T16:31:12.793Z,92893.86
2018-04-12T16:33:39.241Z,92896.68
2018-04-12T16:36:05.869Z,92899.16
2018-04-12T16:38:32.449Z,92894.86
2018-04-12T16:40:59.976Z,92892.34
2018-04-12T16:43:26.450Z,92893.56
2018-04-12T16:45:52.955Z,92891.66
2018-04-12T16:48:19.431Z,92894.84
2018-04-12T16:50:46.701Z,92896.86
2018-04-12T16:53:14.689Z,92896.19
2018-04-12T16:55:41.545Z,92909.44
2018-04-12T16:58:08.710Z,92911.55
2018-04-12T17:00:36.784Z,92921.23
2018-04-12T17:03:04.465Z,92937.05
2018-04-12T17:05:32.201Z,92939.22
2018-04-12T17:08:00.507Z,92946.41
2018-04-12T17:10:27.367Z,92948.50
2018-04-12T17:12:53.986Z,92951.29
2018-04-12T17:15:20.651Z,92941.88
2018-04-12T17:17:47.448Z,92952.70
2018-04-12T17:20:14.234Z,92957.83
2018-04-12T17:22:41.967Z,92965.14
2018-04-12T17:25:08.789Z,92965.80
2018-04-12T17:27:35.300Z,92969.10
2018-04-12T17:30:01.843Z,92972.39
2018-04-12T17:32:28.195Z,92969.75
2018-04-12T17:34:54.714Z,92979.48
2018-04-12T17:37:21.297Z,92975.50
2018-04-12T17:39:47.767Z,92988.83
2018-04-12T17:42:14.517Z,92989.23
2018-04-12T17:44:41.132Z,92992.27
2018-04-12T17:47:07.628Z,92992.37
2018-04-12T17:49:34.100Z,93001.16
2018-04-12T17:52:00.580Z,92992.18
2018-04-12T17:54:27.558Z,92994.66
2018-04-12T17:56:54.196Z,92998.95
2018-04-12T17:59:20.760Z,93005.98
2018-04-12T18:01:48.136Z,93000.98
2018-04-12T18:04:14.726Z,93008.83
2018-04-12T18:06:41.266Z,93009.67
2018-04-12T18:09:08.535Z,93016.26
2018-04-12T18:11:35.167Z,93017.84
2018-04-12T18:14:01.831Z,93028.10
2018-04-12T18:16:28.645Z,93019.58
2018-04-12T18:18:55.143Z,93029.58
2018-04-12T18:21:21.699Z,93026.84
2018-04-12T18:23:49.439Z,93024.68
2018-04-12T18:26:16.003Z,93026.42
2018-04-12T18:28:42.496Z,93028.92
2018-04-12T18:31:09.025Z,93037.22
2018-04-12T18:33:35.547Z,93040.53
2018-04-12T18:36:02.111Z,93045.00
2018-04-12T18:38:28.567Z,93047.98
2018-04-12T18:40:55.328Z,93051.92
2018-04-12T18:43:21.926Z,93054.27
2018-04-12T18:45:48.676Z,93049.77
2018-04-12T18:48:15.313Z,93048.81
2018-04-12T18:50:42.413Z,93048.25
2018-04-12T18:53:09.063Z,93048.61
2018-04-12T18:55:36.291Z,93056.84
2018-04-12T18:58:03.015Z,93053.11
2018-04-12T19:00:29.374Z,93054.39
2018-04-12T19:02:56.132Z,93054.56
2018-04-12T19:05:22.700Z,93054.51
2018-04-12T19:07:49.277Z,93054.67
2018-04-12T19:10:15.868Z,93053.69
2018-04-12T19:12:42.259Z,93061.39
2018-04-12T19:15:08.945Z,93062.52
2018-04-12T19:17:35.349Z,93068.95
2018-04-12T19:20:02.209Z,93072.81
2018-04-12T19:22:29.155Z,93077.48
2018-04-12T19:24:56.145Z,93075.82
2018-04-12T19:27:22.931Z,93074.83
2018-04-12T19:29:49.828Z,93081.31
2018-04-12T19:32:16.660Z,93078.95
2018-04-12T19:34:43.495Z,93078.77
2018-04-12T19:37:10.433Z,93078.14
2018-04-12T19:39:37.378Z,93084.36
2018-04-12T19:42:04.120Z,93081.88
2018-04-12T19:44:32.277Z,93083.39
2018-04-12T19:46:59.483Z,93082.48
2018-04-12T19:49:26.821Z,93085.02
2018-04-12T19:51:54.382Z,93086.69
2018-04-12T19:54:22.147Z,93083.48
2018-04-12T19:56:50.483Z,93089.00
2018-04-12T19:59:18.524Z,93087.50
2018-04-12T20:01:46.667Z,93098.89
2018-04-12T20:04:13.605Z,93091.39
2018-04-12T20:06:42.117Z,93087.98
2018-04-12T20:09:08.926Z,93083.20
2018-04-12T20:11:35.885Z,93087.50
2018-04-12T20:14:02.802Z,93091.16
2018-04-12T20:16:29.783Z,93087.23
2018-04-12T20:18:56.606Z,93088.98
2018-04-12T20:21:23.628Z,93091.75
2018-04-12T20:23:51.467Z,93092.50
2018-04-12T20:26:18.551Z,93093.78
2018-04-12T20:28:45.452Z,93088.91
2018-04-12T20:31:12.360Z,93094.78
2018-04-12T20:33:39.506Z,93097.84
2018-04-12T20:36:06.387Z,93099.44
2018-04-12T20:38:33.205Z,93094.33
2018-04-12T20:41:00.007Z,93100.28
2018-04-12T20:43:26.722Z,93099.65
2018-04-12T20:45:53.776Z,93106.84
2018-04-12T20:48:20.543Z,93107.61
2018-04-12T20:50:47.420Z,93100.03
2018-04-12T20:53:14.532Z,93103.56
2018-04-12T20:55:41.338Z,93099.64
2018-04-12T20:58:08.056Z,93110.39
2018-04-12T21:00:34.689Z,93108.70
2018-04-12T21:03:01.462Z,93120.25
2018-04-12T21:05:28.348Z,93124.26
2018-04-12T21:07:55.076Z,93128.34
2018-04-12T21:10:21.702Z,93131.66
2018-04-12T21:12:48.799Z,93135.25
2018-04-12T21:15:16.653Z,93130.84
2018-04-12T21:17:43.447Z,93131.88
2018-04-12T21:20:10.147Z,93128.27
2018-04-12T21:22:36.800Z,93124.65
2018-04-12T21:25:03.477Z,93117.27
2018-04-12T21:27:30.193Z,93118.77
2018-04-12T21:29:56.800Z,93118.27
2018-04-12T21:32:23.297Z,93126.20
2018-04-12T21:34:49.858Z,93125.80
2018-04-12T21:37:16.300Z,93126.83
2018-04-12T21:39:42.741Z,93129.38
2018-04-12T21:42:09.101Z,93135.27
2018-04-12T21:44:35.535Z,93137.12
2018-04-12T21:47:01.917Z,93139.31
2018-04-12T21:49:28.314Z,93142.75
2018-04-12T21:51:54.726Z,93146.70
2018-04-12T21:54:21.256Z,93145.36
2018-04-12T21:56:47.639Z,93143.92
2018-04-12T21:59:14.014Z,93142.53
2018-04-12T22:01:40.423Z,93139.22
2018-04-12T22:04:06.884Z,93135.00
2018-04-12T22:06:33.390Z,93141.09
2018-04-12T22:08:59.811Z,93139.84
2018-04-12T22:11:26.222Z,93138.23
2018-04-12T22:13:52.720Z,93142.17
2018-04-12T22:16:19.327Z,93140.58
2018-04-12T22:18:45.828Z,93141.41
2018-04-12T22:21:12.334Z,93140.24
2018-04-12T22:23:39.080Z,93136.64
2018-04-12T22:26:05.749Z,93132.28
2018-04-12T22:28:32.252Z,93137.58
2018-04-12T22:30:58.704Z,93134.17
2018-04-12T22:33:25.214Z,93134.34
2018-04-12T22:35:51.818Z,93133.70
2018-04-12T22:38:18.247Z,93130.81
2018-04-12T22:40:44.774Z,93134.79
2018-04-12T22:43:11.287Z,93131.23
2018-04-12T22:45:37.786Z,93136.45
2018-04-12T22:48:04.278Z,93132.39
2018-04-12T22:50:30.721Z,93135.05
2018-04-12T22:52:57.223Z,93137.61
2018-04-12T22:55:23.791Z,93136.73
2018-04-12T22:57:51.066Z,93141.98
2018-04-12T23:00:17.576Z,93146.75
2018-04-12T23:02:44.059Z,93145.08
2018-04-12T23:05:10.588Z,93139.42
2018-04-12T23:07:37.054Z,93135.78
2018-04-12T23:10:03.513Z,93139.40
2018-04-12T23:12:30.026Z,93146.09
2018-04-12T23:14:57.564Z,93136.49
2018-04-12T23:17:23.999Z,93131.67
2018-04-12T23:19:50.426Z,93129.91
2018-04-12T23:22:16.955Z,93124.45
2018-04-12T23:24:43.546Z,93128.32
2018-04-12T23:27:09.998Z,93132.20
2018-04-12T23:29:36.411Z,93133.69
2018-04-12T23:32:02.873Z,93136.91
2018-04-12T23:34:29.314Z,93135.39
2018-04-12T23:36:55.821Z,93135.23
2018-04-12T23:39:22.318Z,93137.16
2018-04-12T23:41:48.872Z,93138.09
2018-04-12T23:44:15.319Z,93149.05
2018-04-12T23:46:41.828Z,93144.00
2018-04-12T23:49:08.238Z,93146.52
2018-04-12T23:51:34.642Z,93144.97
2018-04-12T23:54:01.187Z,93140.30
2018-04-12T23:56:27.653Z,93133.13
2018-04-12T23:58:54.107Z,93136.13
